Time;durP1;ratioP1;P1;durP2;ratioP2;P2;SDS_P1;SDS_P2;PMS_P1;PMS_P2;Temp;Humidity;BMP_temperature;BMP_pressure;BME280_temperature;BME280_humidity;BME280_pressure;Samples;Min_cycle;Max_cycle;Signal;HPM_P1;HPM_P2
2022/11/17 00:00:47;;;;;;;10.80;4.60;;;;;;;2.64;75.55;97772.88;103672;1291;98541;-68
2022/11/17 00:03:16;;;;;;;10.20;4.30;;;;;;;2.66;75.67;97770.13;103634;1299;97855;-70
2022/11/17 00:05:43;;;;;;;8.90;3.60;;;;;;;2.66;75.55;97765.03;103584;1289;111581;-67
2022/11/17 00:08:11;;;;;;;6.20;3.00;;;;;;;2.66;75.59;97760.52;103616;1291;97953;-68
2022/11/17 00:10:40;;;;;;;8.30;3.10;;;;;;;2.66;75.54;97760.49;103623;1289;107834;-70
2022/11/17 00:15:59;;;;;;;8.30;3.30;;;;;;;2.63;75.53;97758.05;103648;1289;95235;-69
2022/11/17 00:21:20;;;;;;;6.90;3.40;;;;;;;2.63;75.60;97754.38;103646;1282;97848;-70
2022/11/17 00:23:50;;;;;;;8.30;3.60;;;;;;;2.63;75.68;97762.48;103667;1290;107016;-69
2022/11/17 00:26:23;;;;;;;8.10;3.60;;;;;;;2.60;75.49;97768.92;103677;1282;96941;-69
2022/11/17 00:28:59;;;;;;;8.00;3.20;;;;;;;2.58;75.57;97767.67;103623;1290;96237;-70
2022/11/17 00:34:21;;;;;;;5.20;2.30;;;;;;;2.57;75.73;97771.59;103663;1295;97676;-69
2022/11/17 00:36:53;;;;;;;2.80;2.30;;;;;;;2.55;75.59;97773.46;103651;1297;106834;-69
2022/11/17 00:39:23;;;;;;;6.70;2.70;;;;;;;2.54;75.71;97774.88;103664;1290;97955;-69
2022/11/17 00:41:51;;;;;;;5.00;2.90;;;;;;;2.54;75.67;97769.65;103675;1291;97849;-69
2022/11/17 00:44:19;;;;;;;6.00;2.90;;;;;;;2.55;75.73;97769.44;103598;1291;111753;-68
2022/11/17 00:46:50;;;;;;;6.00;3.10;;;;;;;2.52;75.74;97768.88;103627;1290;95180;-66
2022/11/17 00:49:23;;;;;;;7.60;3.60;;;;;;;2.50;75.71;97765.71;103599;1291;107944;-68
2022/11/17 00:51:55;;;;;;;7.00;2.90;;;;;;;2.47;75.65;97765.48;103691;1298;97957;-68
2022/11/17 00:54:25;;;;;;;9.00;4.10;;;;;;;2.43;75.59;97767.14;103690;1292;97884;-68
2022/11/17 00:56:54;;;;;;;14.10;4.80;;;;;;;2.43;75.78;97766.83;103592;1282;112629;-68
2022/11/17 00:59:22;;;;;;;21.10;5.60;;;;;;;2.43;75.63;97766.45;103650;1289;97875;-69
2022/11/17 01:01:50;;;;;;;18.10;5.70;;;;;;;2.44;75.75;97766.27;103603;1291;107940;-69
2022/11/17 01:04:20;;;;;;;23.50;5.90;;;;;;;2.44;75.77;97766.23;103663;1299;97908;-69
2022/11/17 01:06:50;;;;;;;17.70;6.10;;;;;;;2.44;75.81;97766.23;103537;1298;97944;-69
2022/11/17 01:09:22;;;;;;;24.10;5.90;;;;;;;2.45;75.85;97761.11;103658;1282;111079;-69
2022/11/17 01:11:52;;;;;;;13.70;5.70;;;;;;;2.44;75.79;97758.02;103621;1295;95119;-69
2022/11/17 01:14:25;;;;;;;17.60;4.50;;;;;;;2.40;75.60;97761.02;103671;1282;106165;-68
2022/11/17 01:16:53;;;;;;;15.30;5.10;;;;;;;2.40;75.79;97761.92;103668;1299;97968;-70
2022/11/17 01:19:24;;;;;;;17.40;5.00;;;;;;;2.40;75.86;97761.20;103649;1282;97862;-69
2022/11/17 01:21:52;;;;;;;17.80;5.50;;;;;;;2.39;75.91;97760.03;103626;1299;111449;-68
2022/11/17 01:24:20;;;;;;;21.40;5.60;;;;;;;2.37;75.69;97754.73;103602;1291;97716;-68
2022/11/17 01:26:50;;;;;;;20.60;6.10;;;;;;;2.38;75.92;97756.58;103596;1299;106162;-68
2022/11/17 01:29:20;;;;;;;22.80;6.00;;;;;;;2.39;75.93;97758.65;103598;1291;97896;-69
2022/11/17 01:31:51;;;;;;;21.20;6.60;;;;;;;2.39;75.85;97760.56;103626;1282;95114;-68
2022/11/17 01:34:19;;;;;;;24.40;6.00;;;;;;;2.39;76.04;97759.34;103638;1289;110830;-69
2022/11/17 01:39:36;;;;;;;24.00;6.20;;;;;;;2.37;75.96;97754.02;103631;1295;108164;-69
2022/11/17 01:42:23;;;;;;;27.10;6.00;;;;;;;2.38;75.86;97749.64;103611;1292;97853;-70
2022/11/17 01:45:16;;;;;;;16.20;4.60;;;;;;;2.38;75.85;97753.30;103584;1291;97860;-69
2022/11/17 01:47:57;;;;;;;22.10;5.70;;;;;;;2.36;75.92;97751.50;103638;1291;111455;-71
2022/11/17 01:50:39;;;;;;;22.30;4.40;;;;;;;2.35;75.96;97754.66;103646;1292;97876;-68
2022/11/17 01:53:18;;;;;;;31.60;5.70;;;;;;;2.32;75.94;97759.07;103663;1296;107452;-68
2022/11/17 01:55:52;;;;;;;22.00;4.10;;;;;;;2.32;76.01;97759.94;103633;1297;95184;-68
2022/11/17 01:58:26;;;;;;;18.30;4.10;;;;;;;2.31;76.07;97757.16;103595;1289;97923;-69
2022/11/17 02:00:56;;;;;;;;;;;;;;;2.29;76.01;97760.63;103602;1299;110073;-69
2022/11/17 02:03:31;;;;;;;13.50;4.00;;;;;;;2.29;76.14;97760.29;103565;1291;98415;-70
2022/11/17 02:06:12;;;;;;;20.40;4.40;;;;;;;2.32;76.07;97761.38;103599;1296;105747;-69
2022/11/17 02:08:48;;;;;;;19.30;5.40;;;;;;;2.31;76.24;97759.63;103528;1291;97822;-69
2022/11/17 02:11:20;;;;;;;17.10;4.40;;;;;;;2.32;76.11;97757.86;103673;1291;97872;-68
2022/11/17 02:13:54;;;;;;;12.30;4.00;;;;;;;2.32;76.17;97758.71;103649;1291;110731;-68
2022/11/17 02:16:22;;;;;;;9.60;3.30;;;;;;;2.34;76.17;97762.46;103593;1297;97799;-69
2022/11/17 02:18:51;;;;;;;7.80;3.20;;;;;;;2.36;76.27;97764.92;103443;1292;108038;-69
2022/11/17 02:21:38;;;;;;;8.90;3.50;;;;;;;2.38;76.34;97767.83;103562;1288;96280;-70
2022/11/17 02:24:31;;;;;;;6.10;3.20;;;;;;;2.36;76.14;97769.48;103592;1282;97887;-71
2022/11/17 02:27:14;;;;;;;10.40;3.50;;;;;;;2.34;76.10;97768.73;103580;1290;110623;-71
2022/11/17 02:29:54;;;;;;;5.10;3.00;;;;;;;2.30;76.14;97771.23;103627;1299;97853;-69
2022/11/17 02:32:37;;;;;;;7.00;3.30;;;;;;;2.29;76.05;97767.43;103567;1291;107769;-68
2022/11/17 02:35:20;;;;;;;4.80;2.70;;;;;;;2.29;76.13;97764.83;103605;1288;95209;-68
2022/11/17 02:38:12;;;;;;;5.40;2.80;;;;;;;2.30;76.10;97760.59;103607;1297;97989;-68
2022/11/17 02:41:05;;;;;;;5.30;2.70;;;;;;;2.29;76.25;97754.18;103599;1297;110982;-68
2022/11/17 02:44:02;;;;;;;5.60;2.80;;;;;;;2.27;76.29;97750.28;103612;1290;97961;-70
2022/11/17 02:46:45;;;;;;;10.70;2.90;;;;;;;2.25;76.20;97750.21;103586;1297;108327;-68
2022/11/17 02:49:26;;;;;;;8.80;3.30;;;;;;;2.26;76.15;97745.96;103651;1292;97893;-69
2022/11/17 02:51:58;;;;;;;19.40;4.20;;;;;;;2.25;76.15;97742.69;103617;1295;98606;-68
2022/11/17 02:54:30;;;;;;;17.00;4.00;;;;;;;2.22;76.15;97736.55;103643;1288;111076;-69
2022/11/17 02:57:00;;;;;;;19.90;4.80;;;;;;;2.18;76.12;97738.52;103597;1299;97875;-69
2022/11/17 02:59:34;;;;;;;15.00;4.30;;;;;;;2.16;76.10;97745.64;103562;1297;108085;-68
2022/11/17 03:02:10;;;;;;;14.20;4.30;;;;;;;2.16;76.05;97748.66;103443;1299;97981;-68
2022/11/17 03:05:22;;;;;;;19.30;5.10;;;;;;;2.16;76.20;97754.77;103709;1295;97984;-70
2022/11/17 03:08:10;;;;;;;9.70;4.00;;;;;;;2.16;76.32;97758.06;103654;1282;110826;-69
2022/11/17 03:10:59;;;;;;;7.70;3.30;;;;;;;2.15;76.19;97762.16;103625;1288;98029;-68
2022/11/17 03:13:45;;;;;;;6.40;2.60;;;;;;;2.17;76.26;97755.79;103621;1297;107480;-69
2022/11/17 03:16:35;;;;;;;5.00;2.00;;;;;;;2.14;76.24;97753.81;103501;1292;95257;-70
2022/11/17 03:19:27;;;;;;;6.20;2.50;;;;;;;2.14;76.17;97749.42;103601;1289;97866;-69
2022/11/17 03:22:12;;;;;;;5.10;2.60;;;;;;;2.17;76.33;97751.40;103578;1291;110756;-69
2022/11/17 03:25:06;;;;;;;3.10;2.20;;;;;;;2.18;76.51;97754.66;103580;1282;97980;-69
2022/11/17 03:27:40;;;;;;;;;;;;;;;2.18;76.29;97754.83;103582;1288;108227;-67
2022/11/17 03:30:10;;;;;;;;;;;;;;;2.14;76.41;97755.91;103585;1298;97931;-68
2022/11/17 03:32:47;;;;;;;6.10;2.20;;;;;;;2.12;76.53;97757.27;103611;1296;97858;-68
2022/11/17 03:35:28;;;;;;;7.30;2.70;;;;;;;2.11;76.41;97758.55;103558;1292;110173;-69
2022/11/17 03:38:10;;;;;;;9.10;2.50;;;;;;;2.10;76.41;97759.16;103579;1297;97792;-68
2022/11/17 03:40:43;;;;;;;7.40;2.60;;;;;;;2.09;76.41;97754.49;103494;1297;107746;-68
2022/11/17 03:43:15;;;;;;;10.40;2.70;;;;;;;2.07;76.38;97757.36;103524;1291;97879;-68
2022/11/17 03:45:52;;;;;;;6.40;2.60;;;;;;;2.05;76.19;97758.88;103608;1290;97838;-68
2022/11/17 03:48:50;;;;;;;3.00;2.10;;;;;;;2.02;76.21;97751.02;103580;1291;111694;-68
2022/11/17 03:51:29;;;;;;;6.20;2.50;;;;;;;1.98;76.37;97747.75;103602;1297;97651;-68
2022/11/17 03:53:59;;;;;;;2.20;1.90;;;;;;;1.96;76.43;97739.67;103649;1299;107122;-68
2022/11/17 03:56:41;;;;;;;4.60;2.40;;;;;;;1.92;76.05;97735.38;103438;1299;96591;-68
2022/11/17 03:59:32;;;;;;;3.10;2.10;;;;;;;1.89;76.56;97731.32;103600;1290;97981;-68
2022/11/17 04:02:02;;;;;;;3.30;2.00;;;;;;;1.88;76.35;97734.52;103569;1293;111283;-69
2022/11/17 04:05:04;;;;;;;2.70;2.00;;;;;;;1.88;76.31;97740.84;103640;1295;97935;-68
2022/11/17 04:07:18;;;;;;;5.20;2.10;;;;;;;1.84;76.28;97748.42;103668;1282;107779;-68
2022/11/17 04:09:47;;;;;;;5.90;2.60;;;;;;;1.81;76.42;97748.58;103626;1290;97858;-69
2022/11/17 04:17:48;;;;;;;10.20;3.60;;;;;;;1.74;76.23;97767.16;103630;1295;97844;-70
2022/11/17 04:20:16;;;;;;;9.20;3.50;;;;;;;1.72;76.19;97769.36;103613;1299;108029;-69
2022/11/17 04:22:44;;;;;;;13.40;3.30;;;;;;;1.71;76.33;97773.79;103671;1289;97878;-69
2022/11/17 04:28:35;;;;;;;8.20;3.40;;;;;;;1.72;76.40;97773.23;103659;1291;97921;-69
2022/11/17 04:30:54;;;;;;;5.30;2.90;;;;;;;1.72;76.24;97770.25;103569;1296;98000;-70
2022/11/17 04:33:21;;;;;;;6.20;2.70;;;;;;;1.72;76.32;97774.10;103580;1299;108102;-68
2022/11/17 04:35:49;;;;;;;4.70;2.60;;;;;;;1.73;76.41;97784.89;103602;1292;97986;-68
2022/11/17 04:38:17;;;;;;;4.80;1.90;;;;;;;1.72;76.34;97798.91;103676;1291;95205;-69
2022/11/17 04:43:32;;;;;;;4.40;2.50;;;;;;;1.67;76.37;97812.09;103498;1289;145769;-71
2022/11/17 04:46:06;;;;;;;1.90;1.60;;;;;;;1.64;76.39;97800.56;103655;1297;107618;-72
2022/11/17 04:48:33;;;;;;;4.20;2.10;;;;;;;1.60;76.45;97784.87;103542;1286;97941;-70
2022/11/17 04:51:01;;;;;;;3.80;2.30;;;;;;;1.59;76.43;97781.47;103654;1282;97950;-73
2022/11/17 04:53:29;;;;;;;3.00;1.70;;;;;;;1.58;76.53;97771.92;103639;1291;110994;-68
2022/11/17 04:56:01;;;;;;;2.60;1.60;;;;;;;1.55;76.61;97763.85;103258;1298;97789;-73
2022/11/17 04:58:29;;;;;;;3.20;2.10;;;;;;;1.52;76.53;97766.16;103616;1298;107184;-69
2022/11/17 05:01:11;;;;;;;4.80;2.80;;;;;;;1.50;76.34;97771.30;103555;1299;95177;-72
2022/11/17 05:03:47;;;;;;;9.40;3.50;;;;;;;1.50;76.50;97777.58;103576;1295;97973;-70
2022/11/17 05:06:32;;;;;;;9.70;3.40;;;;;;;1.51;76.36;97777.21;103540;1295;111314;-70
2022/11/17 05:09:05;;;;;;;6.80;3.10;;;;;;;1.49;76.43;97777.83;103606;1295;95960;-74
2022/11/17 05:14:22;;;;;;;9.20;3.50;;;;;;;1.45;76.17;97776.28;103627;1297;98019;-70
2022/11/17 05:17:04;;;;;;;9.60;3.80;;;;;;;1.43;76.28;97786.02;103644;1298;97949;-71
2022/11/17 05:19:45;;;;;;;11.10;3.40;;;;;;;1.40;76.27;97791.42;103660;1292;110782;-68
2022/11/17 05:25:16;;;;;;;6.50;3.50;;;;;;;1.30;76.53;97760.32;103530;1295;107481;-70
2022/11/17 05:27:44;;;;;;;10.00;4.20;;;;;;;1.28;76.54;97746.65;103665;1299;95856;-73
2022/11/17 05:30:12;;;;;;;6.80;3.70;;;;;;;1.28;76.35;97749.66;103684;1297;95177;-68
2022/11/17 05:32:40;;;;;;;9.20;3.90;;;;;;;1.27;76.60;97767.36;103641;1297;111339;-69
2022/11/17 05:35:09;;;;;;;5.90;3.60;;;;;;;1.28;76.65;97788.09;103624;1297;95128;-71
2022/11/17 05:37:38;;;;;;;10.60;4.60;;;;;;;1.27;76.33;97790.41;103669;1298;107756;-72
2022/11/17 05:40:08;;;;;;;10.50;4.30;;;;;;;1.24;76.40;97794.42;103670;1298;97891;-73
2022/11/17 05:42:35;;;;;;;9.50;4.00;;;;;;;1.23;76.37;97800.03;103682;1291;95118;-68
2022/11/17 05:45:06;;;;;;;9.00;4.40;;;;;;;1.23;76.47;97806.65;103657;1299;111402;-69
2022/11/17 05:47:34;;;;;;;8.60;4.30;;;;;;;1.24;76.44;97814.67;103711;1294;98221;-69
2022/11/17 05:50:01;;;;;;;6.90;4.10;;;;;;;1.24;76.48;97815.52;103576;1282;107864;-70
2022/11/17 05:52:29;;;;;;;11.50;4.60;;;;;;;1.23;76.47;97818.53;103497;1291;95273;-74
2022/11/17 05:54:58;;;;;;;10.00;5.00;;;;;;;1.22;76.38;97811.27;103605;1292;95108;-71
2022/11/17 05:57:31;;;;;;;9.80;5.30;;;;;;;1.22;76.35;97800.63;103621;1292;110170;-70
2022/11/17 06:00:03;;;;;;;10.50;4.80;;;;;;;1.20;76.70;97788.83;103636;1290;97862;-71
2022/11/17 06:02:40;;;;;;;10.40;5.10;;;;;;;1.19;76.61;97784.86;103595;1290;105865;-72
2022/11/17 06:05:08;;;;;;;11.00;4.80;;;;;;;1.19;76.60;97785.42;103612;1295;97931;-71
2022/11/17 06:07:37;;;;;;;11.00;4.60;;;;;;;1.19;76.48;97790.84;103555;1292;96463;-71
2022/11/17 06:10:06;;;;;;;11.80;5.20;;;;;;;1.15;76.61;97790.14;103583;1296;111938;-69
2022/11/17 06:12:35;;;;;;;12.70;4.90;;;;;;;1.16;76.65;97801.49;103366;1296;98179;-70
2022/11/17 06:15:03;;;;;;;9.90;4.80;;;;;;;1.16;76.62;97810.02;103617;1295;108063;-69
2022/11/17 06:17:41;;;;;;;10.10;4.50;;;;;;;1.17;76.63;97819.20;103495;1299;97943;-68
2022/11/17 06:20:20;;;;;;;11.50;5.10;;;;;;;1.18;76.68;97822.98;103457;1296;97921;-69
2022/11/17 06:22:50;;;;;;;11.50;5.40;;;;;;;1.19;76.65;97819.98;103474;1289;112059;-70
2022/11/17 06:25:20;;;;;;;13.30;5.40;;;;;;;1.21;76.72;97817.79;103557;1289;97893;-69
2022/11/17 06:27:51;;;;;;;13.50;6.10;;;;;;;1.23;76.46;97818.70;103368;1295;107939;-69
2022/11/17 06:30:19;;;;;;;13.40;5.50;;;;;;;1.27;76.52;97820.79;103317;1291;97896;-70
2022/11/17 06:32:49;;;;;;;10.90;5.30;;;;;;;1.29;76.70;97819.27;103606;1299;97884;-69
2022/11/17 06:35:20;;;;;;;8.30;3.90;;;;;;;1.30;76.53;97815.59;103582;1296;111061;-69
2022/11/17 06:37:48;;;;;;;8.60;3.90;;;;;;;1.30;76.60;97820.61;103541;1297;95371;-69
2022/11/17 06:40:18;;;;;;;6.40;3.80;;;;;;;1.29;76.74;97820.48;103541;1288;107686;-69
2022/11/17 06:45:37;;;;;;;10.30;5.30;;;;;;;1.30;76.62;97835.10;103595;1297;97873;-69
2022/11/17 06:48:08;;;;;;;14.90;7.00;;;;;;;1.31;76.56;97838.70;103576;1297;109715;-68
2022/11/17 06:50:37;;;;;;;18.20;7.50;;;;;;;1.35;76.89;97840.42;104487;1297;97933;-68
2022/11/17 06:53:08;;;;;;;15.50;6.80;;;;;;;1.38;76.63;97833.14;103528;1283;108620;-69
2022/11/17 06:55:36;;;;;;;16.20;6.60;;;;;;;1.38;76.68;97828.58;104061;1296;95767;-71
2022/11/17 06:58:07;;;;;;;12.90;6.00;;;;;;;1.38;76.50;97832.77;105297;1283;96250;-68
2022/11/17 07:00:35;;;;;;;14.70;6.50;;;;;;;1.39;76.78;97838.80;103986;1299;110167;-69
2022/11/17 07:03:09;;;;;;;14.60;6.20;;;;;;;1.42;76.77;97839.19;105249;1300;96030;-69
2022/11/17 07:05:39;;;;;;;15.30;7.30;;;;;;;1.44;76.67;97839.56;103903;1298;108027;-70
2022/11/17 07:08:08;;;;;;;19.00;7.30;;;;;;;1.46;76.52;97836.31;103567;1290;98563;-69
2022/11/17 07:10:38;;;;;;;13.30;6.60;;;;;;;1.48;76.40;97834.27;103618;1298;96939;-70
2022/11/17 07:13:14;;;;;;;13.80;6.00;;;;;;;1.51;76.57;97825.08;103642;1289;111724;-70
2022/11/17 07:15:41;;;;;;;13.70;6.40;;;;;;;1.52;76.60;97823.95;103627;1291;97908;-70
2022/11/17 07:18:09;;;;;;;15.70;6.30;;;;;;;1.55;76.57;97825.21;103667;1290;107069;-70
2022/11/17 07:20:37;;;;;;;16.30;5.70;;;;;;;1.55;76.60;97821.89;103618;1306;97849;-71
2022/11/17 07:23:05;;;;;;;13.50;5.40;;;;;;;1.57;76.61;97829.13;103674;1295;95238;-71
2022/11/17 07:25:33;;;;;;;14.10;6.00;;;;;;;1.59;76.65;97830.90;103610;1295;111123;-69
2022/11/17 07:28:03;;;;;;;13.60;5.90;;;;;;;1.61;76.62;97836.90;103663;1298;97932;-72
2022/11/17 07:30:31;;;;;;;15.80;6.30;;;;;;;1.62;76.63;97837.40;103679;1291;107478;-69
2022/11/17 07:32:59;;;;;;;18.40;7.70;;;;;;;1.60;76.64;97839.41;103644;1298;97898;-70
2022/11/17 07:35:29;;;;;;;18.10;6.80;;;;;;;1.58;76.73;97835.87;103581;1297;97747;-70
2022/11/17 07:38:00;;;;;;;15.60;6.70;;;;;;;1.55;76.81;97835.48;103686;1295;111403;-69
2022/11/17 07:40:31;;;;;;;14.40;5.90;;;;;;;1.53;76.81;97841.05;103630;1291;97702;-70
2022/11/17 07:43:00;;;;;;;15.70;6.00;;;;;;;1.50;76.64;97839.42;103577;1297;107553;-69
2022/11/17 07:45:30;;;;;;;17.90;6.70;;;;;;;1.47;76.49;97841.17;103594;1291;95224;-69
2022/11/17 07:48:04;;;;;;;14.20;6.30;;;;;;;1.44;76.71;97843.58;103536;1295;97876;-70
2022/11/17 07:50:38;;;;;;;17.00;6.90;;;;;;;1.45;76.84;97844.27;103583;1289;111120;-69
2022/11/17 07:53:06;;;;;;;;;;;;;;;1.45;76.59;97844.95;103738;1299;97996;-69
2022/11/17 07:55:36;;;;;;;13.50;6.10;;;;;;;1.46;76.71;97848.23;103484;1295;107953;-69
2022/11/17 07:58:04;;;;;;;15.20;6.50;;;;;;;1.49;76.85;97852.41;103515;1296;98136;-69
2022/11/17 08:00:32;;;;;;;17.10;7.80;;;;;;;1.52;76.80;97848.95;103516;1289;97877;-69
2022/11/17 08:03:05;;;;;;;20.00;7.70;;;;;;;1.54;76.66;97846.92;103530;1298;112540;-69
2022/11/17 08:05:35;;;;;;;19.10;7.90;;;;;;;1.57;76.71;97848.14;103530;1289;95639;-69
2022/11/17 08:08:11;;;;;;;21.80;10.10;;;;;;;1.60;76.80;97848.00;103501;1289;107164;-71
2022/11/17 08:10:44;;;;;;;20.90;9.70;;;;;;;1.63;76.75;97844.15;103556;1289;95981;-70
2022/11/17 08:13:14;;;;;;;19.80;9.70;;;;;;;1.68;76.86;97848.79;104086;1297;97955;-71
2022/11/17 08:15:44;;;;;;;22.20;8.90;;;;;;;1.71;77.05;97847.39;103612;1300;112253;-70
2022/11/17 08:18:15;;;;;;;18.80;8.30;;;;;;;1.71;76.92;97851.04;103582;1290;97718;-70
2022/11/17 08:20:43;;;;;;;17.30;7.60;;;;;;;1.72;77.06;97854.64;103594;1298;107178;-70
2022/11/17 08:23:11;;;;;;;13.70;5.50;;;;;;;1.72;76.69;97861.33;103492;1288;97799;-70
2022/11/17 08:25:38;;;;;;;18.00;7.60;;;;;;;1.69;76.73;97863.37;103588;1289;97349;-69
2022/11/17 08:28:09;;;;;;;14.60;6.10;;;;;;;1.67;76.79;97866.82;103584;1296;111586;-71
2022/11/17 08:30:37;;;;;;;14.40;6.30;;;;;;;1.64;76.62;97871.52;103606;1289;97883;-69
2022/11/17 08:33:07;;;;;;;19.00;8.10;;;;;;;1.61;76.94;97877.83;103549;1299;108007;-69
2022/11/17 08:35:36;;;;;;;25.00;10.90;;;;;;;1.58;76.69;97879.35;103362;1305;97954;-69
2022/11/17 08:38:10;;;;;;;24.50;11.20;;;;;;;1.58;76.76;97880.74;103545;1296;97803;-69
2022/11/17 08:40:46;;;;;;;18.00;8.50;;;;;;;1.61;76.77;97879.38;103555;1297;110861;-70
2022/11/17 08:43:14;;;;;;;18.20;8.40;;;;;;;1.60;76.60;97878.21;103478;1299;97883;-69
2022/11/17 08:45:42;;;;;;;18.00;8.80;;;;;;;1.60;76.81;97880.11;103613;1289;108191;-69
2022/11/17 08:48:10;;;;;;;17.70;7.90;;;;;;;1.63;76.69;97880.48;103583;1295;98417;-69
2022/11/17 08:50:38;;;;;;;22.50;9.70;;;;;;;1.67;76.77;97885.54;103478;1297;96359;-68
2022/11/17 08:53:15;;;;;;;21.60;7.30;;;;;;;1.68;76.86;97883.17;103438;1298;111423;-68
2022/11/17 08:55:44;;;;;;;18.60;6.90;;;;;;;1.69;76.96;97875.11;103477;1289;97953;-70
2022/11/17 08:58:13;;;;;;;17.20;5.90;;;;;;;1.67;76.83;97876.09;103619;1289;107426;-70
2022/11/17 09:00:46;;;;;;;13.90;5.40;;;;;;;1.63;76.81;97866.35;103618;1295;97884;-71
2022/11/17 09:03:16;;;;;;;19.60;8.00;;;;;;;1.61;76.59;97859.43;103596;1290;97895;-69
2022/11/17 09:05:50;;;;;;;24.80;9.00;;;;;;;1.61;76.72;97862.61;103610;1291;111821;-69
2022/11/17 09:08:18;;;;;;;21.00;8.50;;;;;;;1.61;77.01;97867.16;103643;1298;97890;-68
2022/11/17 09:11:13;;;;;;;17.10;6.60;;;;;;;1.63;76.76;97873.86;103611;1296;107803;-69
2022/11/17 09:13:45;;;;;;;16.00;6.90;;;;;;;1.59;76.67;97866.88;103622;1296;97887;-68
2022/11/17 09:16:19;;;;;;;19.10;7.60;;;;;;;1.58;76.69;97863.49;103636;1299;98374;-71
2022/11/17 09:18:47;;;;;;;17.70;7.50;;;;;;;1.58;76.79;97869.06;103592;1291;110742;-70
2022/11/17 09:21:15;;;;;;;25.50;9.90;;;;;;;1.57;76.79;97871.40;103660;1295;97987;-69
2022/11/17 09:23:43;;;;;;;25.80;9.30;;;;;;;1.57;76.80;97869.31;103472;1296;108261;-69
2022/11/17 09:26:13;;;;;;;22.80;8.60;;;;;;;1.54;76.65;97871.88;103565;1289;98066;-71
2022/11/17 09:28:43;;;;;;;21.70;8.70;;;;;;;1.54;76.92;97873.63;103597;1289;95283;-70
2022/11/17 09:31:19;;;;;;;21.10;8.40;;;;;;;1.53;76.91;97873.20;103592;1296;111418;-69
2022/11/17 09:33:47;;;;;;;22.00;8.40;;;;;;;1.52;77.07;97879.20;103441;1293;97917;-71
2022/11/17 09:36:15;;;;;;;18.70;6.90;;;;;;;1.53;76.80;97880.88;103584;1296;108161;-69
2022/11/17 09:38:45;;;;;;;18.10;7.20;;;;;;;1.54;76.81;97883.94;103592;1288;97914;-69
2022/11/17 09:41:27;;;;;;;17.20;6.80;;;;;;;1.55;76.92;97883.01;103611;1296;97971;-70
2022/11/17 09:44:11;;;;;;;16.30;6.60;;;;;;;1.57;76.93;97881.34;103573;1298;110867;-68
2022/11/17 09:46:47;;;;;;;18.80;8.20;;;;;;;1.59;77.09;97881.42;103560;1298;97764;-69
2022/11/17 09:49:24;;;;;;;19.30;7.40;;;;;;;1.61;76.85;97876.60;103552;1297;107524;-70
2022/11/17 09:51:58;;;;;;;14.50;6.30;;;;;;;1.60;76.83;97876.80;103582;1298;97895;-69
2022/11/17 09:54:47;;;;;;;16.20;6.50;;;;;;;1.55;76.84;97874.98;103553;1292;97898;-70
2022/11/17 09:57:21;;;;;;;14.40;5.90;;;;;;;1.53;76.78;97867.42;103515;1296;111224;-69
2022/11/17 10:00:01;;;;;;;18.80;7.30;;;;;;;1.54;76.82;97861.95;103563;1288;95163;-70
2022/11/17 10:02:29;;;;;;;23.30;9.10;;;;;;;1.57;76.95;97857.77;103570;1288;107372;-69
2022/11/17 10:04:58;;;;;;;23.30;9.80;;;;;;;1.60;77.10;97858.14;103577;1294;97976;-69
2022/11/17 10:07:30;;;;;;;26.20;10.60;;;;;;;1.63;77.02;97857.73;103598;1298;98989;-68
2022/11/17 10:10:01;;;;;;;19.40;8.70;;;;;;;1.67;76.98;97856.34;103559;1288;110669;-73
2022/11/17 10:12:43;;;;;;;16.80;7.50;;;;;;;1.70;76.96;97854.95;103562;1290;96392;-69
2022/11/17 10:15:24;;;;;;;18.70;7.90;;;;;;;1.71;77.05;97852.23;103580;1296;108127;-70
2022/11/17 10:17:52;;;;;;;16.60;6.90;;;;;;;1.73;76.93;97850.38;103573;1289;98071;-69
2022/11/17 10:20:20;;;;;;;15.80;6.60;;;;;;;1.74;76.87;97854.17;103648;1298;97731;-69
2022/11/17 10:22:50;;;;;;;13.40;5.70;;;;;;;1.72;76.87;97853.45;103589;1296;111326;-68
2022/11/17 10:25:40;;;;;;;16.80;6.60;;;;;;;1.72;76.88;97855.69;103509;1290;96347;-69
2022/11/17 10:28:31;;;;;;;15.30;6.10;;;;;;;1.73;76.86;97851.25;103624;1295;107350;-69
2022/11/17 10:31:19;;;;;;;16.50;6.70;;;;;;;1.72;76.79;97849.96;103605;1297;97947;-68
2022/11/17 10:33:49;;;;;;;23.10;8.40;;;;;;;1.69;76.68;97863.91;103623;1288;97760;-69
2022/11/17 10:36:31;;;;;;;17.80;7.80;;;;;;;1.69;76.68;97867.91;103552;1291;109445;-70
2022/11/17 10:39:00;;;;;;;36.20;10.10;;;;;;;1.71;76.69;97871.66;103606;1298;98002;-70
2022/11/17 10:41:41;;;;;;;19.40;8.50;;;;;;;1.75;76.98;97872.64;103604;1295;107772;-71
2022/11/17 10:44:26;;;;;;;18.70;7.60;;;;;;;1.77;76.94;97871.66;103580;1295;96526;-71
2022/11/17 10:47:06;;;;;;;16.40;6.70;;;;;;;1.79;77.09;97873.15;103587;1288;97859;-71
2022/11/17 10:49:39;;;;;;;15.40;5.90;;;;;;;1.80;76.97;97873.83;103610;1297;110703;-72
2022/11/17 10:52:10;;;;;;;15.30;6.30;;;;;;;1.78;76.65;97872.15;103598;1297;97977;-71
2022/11/17 10:54:38;;;;;;;12.90;5.80;;;;;;;1.76;76.95;97868.05;103571;1288;106481;-71
2022/11/17 10:57:15;;;;;;;14.90;6.30;;;;;;;1.73;76.49;97865.64;103571;1289;98019;-70
2022/11/17 10:59:48;;;;;;;16.90;6.60;;;;;;;1.70;76.76;97862.80;103618;1293;95321;-71
2022/11/17 11:02:35;;;;;;;21.50;8.70;;;;;;;1.70;76.78;97860.88;103592;1289;112628;-71
2022/11/17 11:05:14;;;;;;;15.30;6.30;;;;;;;1.69;76.84;97861.14;103631;1290;97864;-70
2022/11/17 11:08:42;;;;;;;17.70;6.10;;;;;;;1.67;76.78;97862.45;103581;1291;109099;-70
2022/11/17 11:11:45;;;;;;;19.50;8.10;;;;;;;1.66;76.92;97863.89;103388;1288;98598;-68
2022/11/17 11:14:18;;;;;;;17.80;7.90;;;;;;;1.66;76.82;97864.45;103644;1289;99002;-68
2022/11/17 11:16:49;;;;;;;22.20;8.80;;;;;;;1.65;76.76;97863.79;103561;1288;111718;-69
2022/11/17 11:19:19;;;;;;;20.90;8.60;;;;;;;1.63;76.78;97872.60;103626;1298;98495;-70
2022/11/17 11:22:19;;;;;;;21.70;8.20;;;;;;;1.64;76.66;97876.24;103528;1289;107659;-69
2022/11/17 11:24:54;;;;;;;19.00;8.10;;;;;;;1.61;76.66;97876.56;103525;1296;97763;-69
2022/11/17 11:27:43;;;;;;;19.00;9.00;;;;;;;1.58;76.45;97879.55;103588;1291;98000;-70
2022/11/17 11:30:15;;;;;;;23.10;10.70;;;;;;;1.56;76.69;97878.98;103585;1296;111781;-69
2022/11/17 11:32:52;;;;;;;22.80;9.50;;;;;;;1.51;76.82;97874.17;103611;1291;98005;-72
2022/11/17 11:35:43;;;;;;;20.50;9.40;;;;;;;1.50;76.92;97869.48;103622;1291;107450;-68
2022/11/17 11:38:31;;;;;;;20.40;8.20;;;;;;;1.50;76.98;97867.05;103603;1290;97836;-69
2022/11/17 11:41:25;;;;;;;15.90;7.10;;;;;;;1.49;76.65;97872.15;103613;1289;97822;-70
2022/11/17 11:44:21;;;;;;;15.60;6.80;;;;;;;1.49;76.77;97871.79;103575;1295;110838;-68
2022/11/17 11:47:31;;;;;;;17.20;7.70;;;;;;;1.50;76.84;97877.36;103579;1298;98003;-69
2022/11/17 11:50:13;;;;;;;18.70;8.00;;;;;;;1.47;76.71;97880.28;103425;1289;107917;-69
2022/11/17 11:52:47;;;;;;;17.20;6.80;;;;;;;1.48;76.80;97878.16;103549;1296;97870;-70
2022/11/17 11:55:23;;;;;;;18.70;8.00;;;;;;;1.48;76.75;97881.65;103588;1290;97954;-70
2022/11/17 11:58:05;;;;;;;16.60;6.60;;;;;;;1.51;76.82;97881.66;103575;1298;111641;-70
2022/11/17 12:00:33;;;;;;;19.80;8.10;;;;;;;1.52;76.75;97877.45;103513;1292;97844;-71
2022/11/17 12:03:12;;;;;;;16.70;7.10;;;;;;;1.51;76.75;97874.35;103535;1291;107731;-70
2022/11/17 12:09:05;;;;;;;23.40;11.40;;;;;;;1.52;76.83;97880.91;103659;1288;95776;-73
2022/11/17 12:14:30;;;;;;;19.70;8.40;;;;;;;1.49;76.75;97881.05;103691;1298;97680;-69
2022/11/17 12:17:17;;;;;;;21.30;8.70;;;;;;;1.50;76.70;97881.55;103664;1298;107572;-68
2022/11/17 12:19:59;;;;;;;23.50;10.50;;;;;;;1.52;77.13;97874.48;103492;1298;97971;-69
2022/11/17 12:22:34;;;;;;;17.30;7.80;;;;;;;1.52;76.66;97873.23;103623;1295;96500;-69
2022/11/17 12:25:20;;;;;;;19.30;8.40;;;;;;;1.48;76.62;97878.66;103588;1298;111331;-69
2022/11/17 12:27:54;;;;;;;19.10;8.00;;;;;;;1.47;76.86;97882.23;103650;1291;95167;-70
2022/11/17 12:30:27;;;;;;;21.50;9.50;;;;;;;1.47;76.93;97881.36;103663;1292;107186;-70
2022/11/17 12:32:57;;;;;;;19.60;9.20;;;;;;;1.44;76.49;97880.96;103645;1291;95218;-71
2022/11/17 12:35:28;;;;;;;23.30;10.50;;;;;;;1.41;76.66;97881.86;103749;1299;97827;-74